Time;durP1;ratioP1;P1;durP2;ratioP2;P2;SDS_P1;SDS_P2;PMS_P1;PMS_P2;Temp;Humidity;BMP_temperature;BMP_pressure;BME280_temperature;BME280_humidity;BME280_pressure;Samples;Min_cycle;Max_cycle;Signal;HPM_P1;HPM_P2
2022/04/26 07:55:59;;;;;;;18.27;8.10;;;;;;;37.76;41.31;100874.25;6133118;22;2241225;-74
2022/04/26 07:58:25;;;;;;;11.17;5.37;;;;;;;37.78;41.03;100864.72;6277267;22;20166;-76
2022/04/26 08:00:51;;;;;;;14.67;5.70;;;;;;;37.73;41.06;100861.31;6277336;22;20384;-73
2022/04/26 08:03:20;;;;;;;10.27;4.50;;;;;;;37.67;40.88;100846.28;6278531;22;20357;-72
2022/04/26 08:05:46;;;;;;;20.00;5.57;;;;;;;37.75;40.58;100868.03;6278011;22;21180;-73
2022/04/26 08:08:13;;;;;;;17.70;5.80;;;;;;;37.78;41.31;100880.97;6278207;22;20485;-74
2022/04/26 08:10:39;;;;;;;23.80;12.30;;;;;;;37.69;41.88;100896.34;6278119;22;20381;-72
2022/04/26 08:13:05;;;;;;;25.50;17.10;;;;;;;37.74;42.52;100901.63;6304862;22;20364;-75
2022/04/26 08:15:31;;;;;;;15.63;8.60;;;;;;;37.78;42.50;100897.19;6305575;22;20436;-68
2022/04/26 08:17:58;;;;;;;13.33;6.20;;;;;;;37.85;41.30;100899.53;6305109;22;20462;-73
2022/04/26 08:20:25;;;;;;;16.17;4.30;;;;;;;37.87;41.38;100894.59;6304071;22;20361;-72
2022/04/26 08:22:51;;;;;;;9.13;4.27;;;;;;;37.88;41.61;100891.59;6304161;22;20817;-73
2022/04/26 08:28:02;;;;;;;14.13;5.10;;;;;;;37.96;41.51;100898.19;6305913;22;20446;-73
2022/04/26 08:30:28;;;;;;;14.93;6.03;;;;;;;38.01;41.44;100910.81;6278570;22;20389;-75
2022/04/26 08:32:54;;;;;;;12.10;5.77;;;;;;;38.07;41.54;100910.41;6277945;22;20404;-72
2022/04/26 08:35:23;;;;;;;10.47;5.37;;;;;;;38.13;41.46;100906.47;6277803;22;20392;-72
2022/04/26 08:37:50;;;;;;;16.03;5.57;;;;;;;38.14;41.33;100904.56;6277292;22;20376;-73
2022/04/26 08:40:17;;;;;;;12.93;5.27;;;;;;;38.17;41.19;100901.22;6276490;22;20384;-73
2022/04/26 08:42:46;;;;;;;30.07;4.43;;;;;;;38.20;40.65;100887.06;6276557;22;20408;-75
2022/04/26 08:45:14;;;;;;;6.40;3.30;;;;;;;38.21;40.58;100882.47;6278003;22;20408;-74
2022/04/26 08:53:14;;;;;;;9.40;4.17;;;;;;;38.29;40.76;100901.50;6305015;22;20411;-71
2022/04/26 08:55:46;;;;;;;9.13;4.00;;;;;;;38.30;40.57;100902.31;6228565;22;20492;-71
2022/04/26 08:58:14;;;;;;;8.40;4.23;;;;;;;38.34;39.92;100916.84;6243094;23;20799;-71
2022/04/26 09:01:01;;;;;;;7.53;3.90;;;;;;;38.31;40.15;100922.91;6242904;23;20424;-73
2022/04/26 09:03:30;;;;;;;11.33;4.30;;;;;;;38.33;40.30;100912.53;6214739;23;20378;-71
2022/04/26 09:06:46;;;;;;;8.27;3.20;;;;;;;38.33;40.47;100920.66;6214814;23;20543;-71
2022/04/26 09:09:24;;;;;;;8.87;5.67;;;;;;;38.35;40.33;100919.25;6214919;23;20420;-71
2022/04/26 09:11:58;;;;;;;8.90;4.60;;;;;;;38.39;40.08;100927.56;6213752;23;20461;-73
2022/04/26 09:14:51;;;;;;;11.93;4.43;;;;;;;38.47;40.19;100934.16;6214259;23;20406;-73
2022/04/26 09:17:17;;;;;;;8.60;4.37;;;;;;;38.44;39.75;100941.00;6213157;23;20391;-72
2022/04/26 09:19:56;;;;;;;12.80;3.93;;;;;;;38.38;40.23;100945.75;6216656;23;20426;-73
2022/04/26 09:22:26;;;;;;;9.30;4.50;;;;;;;38.30;40.41;100942.94;6216560;23;20382;-73
2022/04/26 09:24:55;;;;;;;9.03;3.90;;;;;;;38.36;40.46;100949.84;6216591;23;20379;-73
2022/04/26 09:27:22;;;;;;;8.77;5.03;;;;;;;38.42;40.14;100954.03;6216834;23;20413;-71
2022/04/26 09:29:48;;;;;;;24.30;5.33;;;;;;;38.40;39.96;100945.44;6217611;23;20378;-71
2022/04/26 09:32:14;;;;;;;12.70;3.40;;;;;;;38.43;40.04;100947.53;6217392;23;20375;-72
2022/04/26 09:34:40;;;;;;;10.93;4.13;;;;;;;38.44;40.72;100952.63;6216891;23;20378;-72
2022/04/26 09:37:07;;;;;;;13.17;6.97;;;;;;;38.47;40.15;100953.13;6216546;23;20385;-70
2022/04/26 09:39:33;;;;;;;10.70;4.63;;;;;;;38.51;40.81;100944.06;6215984;23;20906;-73
2022/04/26 09:41:59;;;;;;;17.63;6.23;;;;;;;38.53;40.63;100949.19;6216861;23;20941;-73
2022/04/26 09:44:38;;;;;;;17.67;4.87;;;;;;;38.54;40.81;100958.91;6217158;23;20477;-72
2022/04/26 09:47:04;;;;;;;12.13;5.17;;;;;;;38.51;40.99;100962.25;6218354;23;20393;-72
2022/04/26 09:49:37;;;;;;;12.70;4.90;;;;;;;38.41;41.43;100947.81;6246242;23;20362;-70
2022/04/26 09:52:04;;;;;;;17.67;6.00;;;;;;;38.40;41.68;100950.84;6219155;23;20457;-71
2022/04/26 09:54:31;;;;;;;15.27;7.17;;;;;;;38.36;42.03;100945.22;6250912;22;20472;-71
2022/04/26 09:56:58;;;;;;;11.17;4.33;;;;;;;38.35;41.93;100940.91;6249493;22;20849;-71
2022/04/26 09:59:37;;;;;;;11.60;5.83;;;;;;;38.37;42.21;100932.50;6249531;22;20424;-71
2022/04/26 10:02:08;;;;;;;19.90;7.10;;;;;;;38.38;42.28;100915.13;6276672;22;20368;-73
2022/04/26 10:04:45;;;;;;;21.10;5.77;;;;;;;38.38;41.96;100910.50;6249497;22;20766;-71
2022/04/26 10:07:14;;;;;;;17.87;6.37;;;;;;;38.38;41.76;100910.50;6276365;22;20401;-72
2022/04/26 10:09:44;;;;;;;19.33;6.80;;;;;;;38.39;41.78;100898.56;6276648;22;20362;-72
2022/04/26 10:12:11;;;;;;;23.80;9.53;;;;;;;38.44;41.90;100886.81;6249457;22;20385;-72
2022/04/26 10:14:37;;;;;;;16.23;5.80;;;;;;;38.45;41.44;100882.97;6276501;22;20397;-72
2022/04/26 10:17:04;;;;;;;27.77;8.03;;;;;;;38.47;41.84;100878.03;6249368;22;20381;-72
2022/04/26 10:19:39;;;;;;;20.63;5.90;;;;;;;38.49;41.59;100875.84;6248793;22;21011;-72
2022/04/26 10:22:08;;;;;;;17.80;5.67;;;;;;;38.49;41.72;100872.31;6276479;22;20358;-72
2022/04/26 10:24:34;;;;;;;17.10;6.03;;;;;;;38.55;41.25;100874.59;6249244;22;20450;-72
2022/04/26 10:27:19;;;;;;;15.17;5.57;;;;;;;38.58;41.55;100873.16;6276512;22;20358;-72
2022/04/26 10:29:46;;;;;;;16.40;6.57;;;;;;;38.59;41.49;100869.34;6276372;22;20346;-73
2022/04/26 10:32:31;;;;;;;19.43;7.50;;;;;;;38.54;41.57;100869.47;6249314;22;20388;-73
2022/04/26 10:35:24;;;;;;;12.20;5.13;;;;;;;38.52;41.88;100877.91;6276348;22;20441;-72
2022/04/26 10:38:12;;;;;;;16.87;7.07;;;;;;;38.62;42.04;100876.88;6241164;22;20473;-72
2022/04/26 10:41:06;;;;;;;8.70;5.00;;;;;;;38.61;41.23;100873.34;6248955;22;20397;-72
2022/04/26 10:43:32;;;;;;;9.90;3.80;;;;;;;38.48;40.75;100887.75;6249120;22;20366;-72
2022/04/26 10:46:12;;;;;;;12.17;5.80;;;;;;;38.45;40.89;100882.97;6249048;22;20842;-73
2022/04/26 10:48:38;;;;;;;20.83;4.77;;;;;;;38.61;41.23;100880.66;6248852;22;20849;-73
2022/04/26 10:51:35;;;;;;;15.17;5.40;;;;;;;38.64;40.86;100875.44;6248790;22;20389;-73
2022/04/26 10:54:03;;;;;;;12.30;5.63;;;;;;;38.69;40.50;100875.31;6248764;22;20385;-73
2022/04/26 10:56:30;;;;;;;18.80;5.07;;;;;;;38.74;40.42;100879.84;6248593;22;20449;-73
2022/04/26 10:58:57;;;;;;;17.63;5.70;;;;;;;38.74;40.68;100887.16;6248701;22;20841;-73
2022/04/26 11:01:24;;;;;;;11.37;5.57;;;;;;;38.82;40.40;100881.78;6276107;22;20385;-73
2022/04/26 11:03:55;;;;;;;18.00;6.30;;;;;;;38.85;40.26;100880.34;6248662;22;20405;-73
2022/04/26 11:06:39;;;;;;;10.03;4.63;;;;;;;38.82;40.91;100875.56;6248621;22;20386;-72
2022/04/26 11:09:15;;;;;;;17.83;5.47;;;;;;;38.73;40.27;100866.56;6248795;22;20388;-72
2022/04/26 11:11:47;;;;;;;22.73;8.10;;;;;;;38.60;40.98;100865.50;6248872;22;20397;-74
2022/04/26 11:14:17;;;;;;;19.63;6.40;;;;;;;38.60;40.59;100857.38;6248800;22;20470;-74
2022/04/26 11:16:56;;;;;;;12.70;5.17;;;;;;;38.66;40.34;100840.66;6248849;22;20392;-74
2022/04/26 11:19:31;;;;;;;14.80;5.47;;;;;;;38.73;40.00;100840.25;6275550;22;20452;-73
2022/04/26 11:22:08;;;;;;;17.10;6.17;;;;;;;38.80;40.25;100840.63;6248833;22;20434;-74
2022/04/26 11:30:07;;;;;;;11.80;5.00;;;;;;;38.87;39.68;100845.59;6276267;22;20400;-72
2022/04/26 11:32:38;;;;;;;14.23;4.30;;;;;;;38.88;39.93;100853.41;6248410;22;20401;-72
2022/04/26 11:35:05;;;;;;;13.47;4.93;;;;;;;38.92;39.86;100864.44;6248505;22;20408;-73
2022/04/26 11:37:31;;;;;;;13.23;4.73;;;;;;;38.96;39.12;100857.25;6248450;22;20409;-74
2022/04/26 11:40:01;;;;;;;9.30;4.90;;;;;;;38.93;39.62;100844.34;6248383;22;20421;-74
2022/04/26 11:42:34;;;;;;;12.63;5.67;;;;;;;38.95;39.75;100844.81;6248650;22;20386;-72
2022/04/26 11:45:06;;;;;;;20.27;5.20;;;;;;;39.00;39.82;100838.47;6248401;22;20384;-72
2022/04/26 11:47:49;;;;;;;19.57;4.27;;;;;;;39.01;39.64;100851.69;6248516;22;20872;-72
2022/04/26 11:50:22;;;;;;;9.77;4.50;;;;;;;39.01;40.25;100857.13;6275551;22;20679;-73
2022/04/26 11:52:49;;;;;;;13.93;5.20;;;;;;;39.02;39.97;100841.66;6248015;22;20748;-73
2022/04/26 11:55:23;;;;;;;15.67;4.80;;;;;;;39.03;39.60;100827.75;6233459;22;20445;-72
2022/04/26 11:57:50;;;;;;;18.87;4.77;;;;;;;39.04;39.54;100825.84;6217990;23;20390;-72
2022/04/26 12:00:18;;;;;;;26.13;5.60;;;;;;;39.09;40.17;100814.84;6217781;23;20430;-72
2022/04/26 12:02:47;;;;;;;10.10;4.50;;;;;;;39.06;39.66;100805.44;6218010;23;20386;-74
2022/04/26 12:05:19;;;;;;;8.03;5.30;;;;;;;39.16;39.46;100802.44;6244247;23;20371;-73
2022/04/26 12:07:45;;;;;;;12.30;5.10;;;;;;;39.17;39.04;100801.38;6218004;23;20726;-71
2022/04/26 12:10:32;;;;;;;16.57;6.37;;;;;;;39.17;39.37;100793.22;6217973;23;20728;-72
2022/04/26 12:13:05;;;;;;;11.57;4.77;;;;;;;39.16;39.55;100788.09;6244924;23;20376;-74
2022/04/26 12:15:34;;;;;;;13.87;7.80;;;;;;;39.19;39.20;100776.63;6244691;23;20436;-73
2022/04/26 12:18:14;;;;;;;14.47;5.47;;;;;;;39.09;38.69;100774.16;6244640;23;20694;-72
2022/04/26 12:21:01;;;;;;;13.47;4.80;;;;;;;39.15;38.90;100776.41;6217786;23;20870;-72
2022/04/26 12:23:28;;;;;;;17.20;5.20;;;;;;;39.18;38.67;100778.53;6217810;23;20382;-74
2022/04/26 12:26:02;;;;;;;14.50;5.17;;;;;;;39.21;38.72;100771.66;6217729;23;20731;-74
2022/04/26 12:28:29;;;;;;;12.70;7.23;;;;;;;39.22;38.63;100778.69;6217492;23;20465;-74
2022/04/26 12:30:56;;;;;;;23.07;7.73;;;;;;;39.18;38.67;100775.81;6217582;23;20432;-74
2022/04/26 12:33:31;;;;;;;14.53;6.23;;;;;;;39.19;39.05;100772.00;6217744;23;20452;-73
2022/04/26 12:35:58;;;;;;;11.17;4.73;;;;;;;39.25;39.32;100771.84;6217413;23;20381;-73
2022/04/26 12:38:25;;;;;;;18.40;4.77;;;;;;;39.30;38.93;100758.91;6217568;23;20910;-73
2022/04/26 12:41:05;;;;;;;12.47;5.00;;;;;;;39.15;38.50;100757.41;6244266;23;20355;-74
2022/04/26 12:43:33;;;;;;;15.60;4.83;;;;;;;39.27;38.73;100751.41;6217739;23;20458;-74
2022/04/26 12:46:02;;;;;;;17.83;5.50;;;;;;;39.29;38.84;100737.50;6217658;23;20423;-74
2022/04/26 12:51:18;;;;;;;15.77;5.47;;;;;;;39.29;38.90;100726.66;6244351;23;20412;-72
2022/04/26 12:53:46;;;;;;;10.53;4.53;;;;;;;39.31;38.81;100719.00;6217383;23;20382;-72
2022/04/26 12:56:13;;;;;;;16.30;4.20;;;;;;;39.34;38.81;100712.94;6270381;22;20453;-74
2022/04/26 12:58:42;;;;;;;18.70;5.53;;;;;;;39.39;39.14;100720.91;6247751;22;20428;-73
2022/04/26 13:01:09;;;;;;;17.00;5.17;;;;;;;39.42;38.72;100707.53;6247773;22;20385;-73
2022/04/26 13:03:37;;;;;;;11.00;4.50;;;;;;;39.46;38.63;100715.81;6247480;22;20410;-72
2022/04/26 13:06:14;;;;;;;19.60;6.97;;;;;;;39.39;39.08;100704.63;6247194;22;20403;-72
2022/04/26 13:08:43;;;;;;;21.03;6.97;;;;;;;39.45;38.80;100698.72;6247517;22;20397;-74
2022/04/26 13:11:10;;;;;;;16.73;6.63;;;;;;;39.49;38.61;100701.59;6247712;22;20376;-74
2022/04/26 13:13:40;;;;;;;13.77;5.40;;;;;;;39.46;38.86;100704.94;6247452;22;20373;-73
2022/04/26 13:16:07;;;;;;;17.40;8.93;;;;;;;39.53;38.43;100699.81;6247764;22;20380;-74
2022/04/26 13:18:34;;;;;;;12.10;5.00;;;;;;;39.45;38.75;100690.59;6247311;22;20506;-72
2022/04/26 13:21:02;;;;;;;13.43;4.23;;;;;;;39.53;38.49;100685.47;6247743;22;20414;-71
2022/04/26 13:23:30;;;;;;;13.60;4.07;;;;;;;39.63;38.44;100679.72;6274944;22;20357;-72
2022/04/26 13:25:59;;;;;;;16.37;6.17;;;;;;;39.58;37.77;100679.88;6247472;22;20911;-73
2022/04/26 13:28:26;;;;;;;8.47;5.00;;;;;;;39.56;38.20;100672.06;6274889;22;20359;-73
2022/04/26 13:30:52;;;;;;;11.67;4.63;;;;;;;39.62;38.41;100668.09;6247612;22;20382;-73
2022/04/26 13:33:20;;;;;;;11.70;7.30;;;;;;;39.64;37.60;100668.53;6247487;22;20386;-72
2022/04/26 13:35:46;;;;;;;20.17;4.73;;;;;;;39.69;37.96;100664.88;6247642;22;20858;-72
2022/04/26 13:38:15;;;;;;;15.00;6.37;;;;;;;39.67;38.18;100658.97;6274800;22;20365;-74
2022/04/26 13:40:42;;;;;;;18.03;7.03;;;;;;;39.68;37.65;100658.66;6247699;22;20380;-74
2022/04/26 13:43:10;;;;;;;21.00;6.50;;;;;;;39.64;37.83;100657.69;6274759;22;20360;-72
2022/04/26 13:45:36;;;;;;;11.10;6.07;;;;;;;39.64;37.94;100663.13;6222555;22;20385;-73
2022/04/26 13:48:12;;;;;;;10.77;5.10;;;;;;;39.78;38.02;100662.13;6247511;22;20381;-73
2022/04/26 13:50:39;;;;;;;15.00;7.10;;;;;;;39.84;38.16;100666.25;6247672;22;20377;-73
2022/04/26 13:53:06;;;;;;;12.70;5.77;;;;;;;39.82;37.75;100658.44;6247506;22;20381;-73
2022/04/26 13:55:33;;;;;;;9.40;5.30;;;;;;;39.93;38.33;100667.84;6229950;22;20491;-72
2022/04/26 13:58:02;;;;;;;18.53;5.70;;;;;;;39.97;37.89;100663.38;6192292;23;20382;-72
2022/04/26 14:00:30;;;;;;;8.00;3.90;;;;;;;40.06;37.91;100671.50;6193504;23;20451;-72
2022/04/26 14:02:57;;;;;;;15.33;6.70;;;;;;;39.92;37.33;100666.25;6192776;23;20383;-73
2022/04/26 14:05:24;;;;;;;11.53;5.00;;;;;;;40.03;37.44;100661.25;6217057;23;20452;-73
2022/04/26 14:07:51;;;;;;;14.30;7.00;;;;;;;40.06;37.13;100657.13;6243887;23;20408;-71
2022/04/26 14:10:17;;;;;;;13.30;5.50;;;;;;;40.12;37.26;100656.59;6244158;23;20351;-74
2022/04/26 14:12:43;;;;;;;9.37;4.90;;;;;;;40.15;37.36;100652.47;6217089;23;20452;-75
2022/04/26 14:23:27;;;;;;;11.90;5.20;;;;;;;40.22;36.45;100658.19;6245924;23;20353;-73
2022/04/26 14:25:54;;;;;;;12.80;5.37;;;;;;;40.19;36.38;100656.09;6218626;23;20436;-72
2022/04/26 14:28:20;;;;;;;12.00;4.20;;;;;;;40.23;36.68;100651.63;6193857;23;20396;-72
2022/04/26 14:30:47;;;;;;;9.13;4.57;;;;;;;40.20;36.95;100647.59;6218812;23;20858;-73
2022/04/26 14:33:13;;;;;;;16.20;5.20;;;;;;;40.25;36.59;100650.16;6245813;23;20367;-73
2022/04/26 14:35:39;;;;;;;13.20;5.93;;;;;;;40.13;37.12;100651.97;6245805;23;20374;-73
2022/04/26 14:38:10;;;;;;;10.53;5.10;;;;;;;40.26;36.81;100656.38;6218587;23;20402;-71
2022/04/26 14:40:37;;;;;;;15.93;4.50;;;;;;;40.25;37.36;100661.03;6218720;23;20382;-71
2022/04/26 14:43:05;;;;;;;13.63;5.00;;;;;;;40.29;36.48;100658.47;6218713;23;20441;-72
2022/04/26 14:45:32;;;;;;;18.03;6.30;;;;;;;40.38;36.51;100658.41;6218805;23;20375;-73
2022/04/26 14:48:00;;;;;;;15.33;6.00;;;;;;;40.39;35.72;100657.28;6218647;23;20865;-73
2022/04/26 14:50:27;;;;;;;11.00;4.97;;;;;;;40.37;35.72;100660.31;6218594;23;20382;-73
2022/04/26 14:52:53;;;;;;;10.50;6.37;;;;;;;40.46;35.61;100654.84;6218591;23;20894;-72
2022/04/26 14:55:20;;;;;;;58.80;24.90;;;;;;;40.48;35.48;100652.63;6218063;23;20441;-72
2022/04/26 14:57:46;;;;;;;98.23;54.47;;;;;;;40.59;34.74;100647.63;6218599;23;20385;-73
2022/04/26 15:00:13;;;;;;;34.67;20.17;;;;;;;40.65;34.80;100654.44;6218210;23;20423;-73
2022/04/26 15:02:39;;;;;;;17.10;9.57;;;;;;;40.65;33.99;100649.81;6218616;23;20382;-71
2022/04/26 15:05:08;;;;;;;14.30;8.47;;;;;;;40.58;34.26;100646.81;6218585;23;20464;-71
2022/04/26 15:10:20;;;;;;;9.90;4.20;;;;;;;40.65;34.58;100646.28;6245411;23;20429;-73
2022/04/26 15:18:17;;;;;;;10.07;4.90;;;;;;;40.65;34.90;100652.53;6245242;23;20410;-73
2022/04/26 15:20:49;;;;;;;39.00;20.90;;;;;;;40.71;34.65;100645.75;6218314;23;20382;-71
2022/04/26 15:23:16;;;;;;;11.07;5.83;;;;;;;40.73;34.40;100654.38;6218218;23;20390;-72
2022/04/26 15:25:48;;;;;;;11.13;5.03;;;;;;;40.76;34.43;100661.91;6218328;23;20413;-72
2022/04/26 15:28:15;;;;;;;8.23;4.17;;;;;;;40.75;34.60;100656.75;6218248;23;20472;-73
2022/04/26 15:30:42;;;;;;;25.47;12.47;;;;;;;40.79;34.74;100644.91;6245261;23;20367;-72
2022/04/26 15:33:10;;;;;;;14.90;8.40;;;;;;;40.83;34.20;100657.84;6218231;23;20410;-71
2022/04/26 15:35:38;;;;;;;11.20;5.30;;;;;;;40.81;34.32;100658.94;6218170;23;20714;-72
2022/04/26 15:38:10;;;;;;;13.70;6.77;;;;;;;40.74;34.38;100658.69;6217963;23;20504;-73
2022/04/26 15:40:38;;;;;;;12.50;6.77;;;;;;;40.67;33.61;100663.84;6218214;23;20390;-71
2022/04/26 15:43:05;;;;;;;20.90;9.40;;;;;;;40.62;34.27;100669.47;6218143;23;20394;-72
2022/04/26 15:45:33;;;;;;;21.50;11.20;;;;;;;40.68;34.10;100670.09;6218023;23;20386;-73
2022/04/26 15:48:00;;;;;;;14.17;8.20;;;;;;;40.76;33.66;100675.50;6218164;23;20397;-72
2022/04/26 15:50:28;;;;;;;18.67;12.93;;;;;;;40.82;34.62;100678.78;6217922;23;20745;-73
2022/04/26 15:52:55;;;;;;;20.03;12.47;;;;;;;40.78;33.49;100677.88;6217887;23;20382;-73
2022/04/26 15:55:22;;;;;;;20.17;10.27;;;;;;;40.76;33.98;100675.50;6217419;23;20447;-71
2022/04/26 15:57:53;;;;;;;21.93;8.70;;;;;;;40.71;34.05;100683.03;6217773;23;20391;-72
2022/04/26 16:00:20;;;;;;;19.33;7.70;;;;;;;40.68;33.74;100683.69;6217390;23;20426;-71
2022/04/26 16:02:51;;;;;;;9.10;5.17;;;;;;;40.60;33.98;100676.38;6217763;23;20448;-74
2022/04/26 16:05:18;;;;;;;13.80;6.43;;;;;;;40.64;34.08;100678.13;6217685;23;20382;-72
2022/04/26 16:07:44;;;;;;;17.97;8.70;;;;;;;40.60;34.05;100677.19;6217512;23;20378;-72
2022/04/26 16:21:10;;;;;;;11.60;6.30;;;;;;;40.58;34.29;100676.72;6244435;23;20482;-71
2022/04/26 16:23:37;;;;;;;12.33;3.90;;;;;;;40.47;34.24;100689.06;6244750;23;20351;-71
2022/04/26 16:26:05;;;;;;;9.60;4.33;;;;;;;40.42;33.94;100687.31;6243978;23;20347;-72
2022/04/26 16:28:37;;;;;;;9.60;4.20;;;;;;;40.33;34.62;100688.47;6217259;23;20374;-71
2022/04/26 16:31:07;;;;;;;8.77;4.60;;;;;;;40.39;34.32;100689.88;6217227;23;20784;-73
2022/04/26 16:33:33;;;;;;;13.80;5.70;;;;;;;40.41;34.30;100695.81;6244013;23;20355;-73
2022/04/26 16:36:00;;;;;;;10.83;5.50;;;;;;;40.40;34.89;100702.38;6217318;23;20855;-72
2022/04/26 16:38:26;;;;;;;14.07;7.17;;;;;;;40.44;34.52;100700.59;6217080;23;20426;-71
2022/04/26 16:40:53;;;;;;;37.07;22.33;;;;;;;40.42;34.52;100702.84;6244016;23;20826;-72
2022/04/26 16:43:19;;;;;;;15.90;10.00;;;;;;;40.44;34.31;100695.94;6243795;23;20351;-72
2022/04/26 16:45:49;;;;;;;14.03;6.77;;;;;;;40.42;34.91;100702.84;6216035;23;20383;-72
2022/04/26 16:48:16;;;;;;;16.57;8.23;;;;;;;40.39;34.63;100693.44;6215679;23;20386;-72
2022/04/26 16:50:42;;;;;;;20.90;8.13;;;;;;;40.40;34.42;100694.22;6215862;23;20378;-72
2022/04/26 16:53:09;;;;;;;19.40;7.10;;;;;;;40.42;34.51;100697.41;6217416;23;20378;-72
2022/04/26 16:55:35;;;;;;;11.10;7.13;;;;;;;40.35;34.32;100689.75;6217105;23;20438;-73
2022/04/26 16:58:02;;;;;;;12.47;6.70;;;;;;;40.36;34.42;100693.28;6216883;23;20387;-74
2022/04/26 17:00:29;;;;;;;13.07;5.67;;;;;;;40.39;34.41;100698.88;6217342;23;20926;-72
2022/04/26 17:02:56;;;;;;;14.30;5.03;;;;;;;40.33;34.94;100699.34;6244133;23;20695;-73
2022/04/26 17:05:22;;;;;;;12.53;5.07;;;;;;;40.31;34.85;100699.69;6217254;23;20386;-74
2022/04/26 17:07:50;;;;;;;11.83;4.27;;;;;;;40.34;34.93;100707.19;6217510;23;20452;-74
2022/04/26 17:10:18;;;;;;;9.10;4.50;;;;;;;40.34;34.43;100706.41;6217443;23;20465;-75
2022/04/26 17:12:48;;;;;;;13.43;6.90;;;;;;;40.31;34.92;100710.56;6216764;23;20394;-73
2022/04/26 17:15:15;;;;;;;11.53;4.60;;;;;;;40.25;34.60;100717.28;6217334;23;20477;-73
2022/04/26 17:17:42;;;;;;;13.90;6.17;;;;;;;40.23;34.78;100716.84;6217263;23;20433;-72
2022/04/26 17:20:11;;;;;;;9.33;5.17;;;;;;;40.20;34.95;100715.53;6217332;23;20426;-73
2022/04/26 17:22:38;;;;;;;13.53;5.47;;;;;;;40.21;35.13;100716.38;6217416;23;20413;-74
2022/04/26 17:25:13;;;;;;;11.83;5.10;;;;;;;40.17;34.71;100721.66;6217204;23;20386;-75
2022/04/26 17:27:49;;;;;;;11.43;6.17;;;;;;;40.19;34.96;100718.59;6217368;23;20881;-73
2022/04/26 17:30:15;;;;;;;13.40;6.40;;;;;;;40.25;35.02;100733.59;6217358;23;20381;-74
2022/04/26 17:32:43;;;;;;;10.73;6.40;;;;;;;40.23;34.63;100733.94;6217304;23;20386;-73
2022/04/26 17:35:11;;;;;;;12.00;6.83;;;;;;;40.20;34.49;100728.34;6217317;23;20413;-73
2022/04/26 17:37:44;;;;;;;22.30;6.83;;;;;;;40.13;34.91;100728.84;6216652;23;20822;-75
2022/04/26 17:40:12;;;;;;;17.30;5.53;;;;;;;40.07;34.77;100729.34;6217247;23;20430;-74
2022/04/26 17:42:40;;;;;;;21.40;10.20;;;;;;;40.06;34.78;100722.31;6244153;23;20354;-74
2022/04/26 17:45:08;;;;;;;33.73;18.50;;;;;;;40.07;34.72;100723.91;6217128;23;20877;-76
2022/04/26 17:47:36;;;;;;;20.33;11.50;;;;;;;40.10;34.82;100731.44;6244237;23;20366;-73
2022/04/26 17:50:05;;;;;;;20.50;8.60;;;;;;;40.08;34.81;100728.22;6216887;23;20417;-73
2022/04/26 17:52:32;;;;;;;18.70;7.17;;;;;;;40.09;34.93;100727.13;6218667;23;20741;-74
2022/04/26 17:57:44;;;;;;;15.90;8.10;;;;;;;40.10;34.73;100739.56;6245953;23;20413;-75
2022/04/26 18:00:12;;;;;;;16.23;7.67;;;;;;;40.01;35.18;100744.97;6218742;23;20850;-74
2022/04/26 18:02:39;;;;;;;12.97;7.07;;;;;;;40.01;35.16;100737.63;6218734;23;20436;-74
2022/04/26 18:05:06;;;;;;;10.77;5.20;;;;;;;40.00;35.56;100741.47;6219035;23;20874;-75
2022/04/26 18:07:32;;;;;;;17.10;8.13;;;;;;;40.05;35.72;100742.47;6245680;23;20476;-74
2022/04/26 18:09:58;;;;;;;18.40;6.60;;;;;;;40.05;35.63;100745.97;6218400;23;20378;-73
2022/04/26 18:12:24;;;;;;;19.23;6.73;;;;;;;40.02;35.63;100743.84;6217600;23;20414;-72
2022/04/26 18:14:54;;;;;;;13.77;7.00;;;;;;;39.94;35.90;100740.06;6245482;23;20841;-74
2022/04/26 18:17:22;;;;;;;14.83;7.50;;;;;;;39.81;36.06;100738.31;6218794;23;20412;-72
2022/04/26 18:19:49;;;;;;;17.47;7.43;;;;;;;39.74;35.75;100733.38;6218870;23;20913;-73
2022/04/26 18:22:16;;;;;;;16.03;7.37;;;;;;;39.66;36.35;100733.41;6216990;23;20406;-72
2022/04/26 18:24:43;;;;;;;16.03;6.17;;;;;;;39.59;36.63;100731.13;6216400;23;20469;-72
2022/04/26 18:27:09;;;;;;;13.20;5.23;;;;;;;39.55;36.96;100738.31;6214985;23;20410;-72
2022/04/26 18:29:35;;;;;;;14.77;6.13;;;;;;;39.54;36.89;100744.09;6243666;23;20347;-74
2022/04/26 18:32:02;;;;;;;14.20;7.60;;;;;;;39.53;37.37;100747.88;6218079;23;20405;-74
2022/04/26 18:34:29;;;;;;;11.20;5.27;;;;;;;39.49;37.29;100748.53;6218409;23;20390;-74
2022/04/26 18:36:55;;;;;;;14.43;6.03;;;;;;;39.52;36.84;100738.16;6214585;23;20410;-72
2022/04/26 18:39:21;;;;;;;16.53;8.17;;;;;;;39.54;37.08;100738.66;6216546;23;21108;-72
2022/04/26 18:41:49;;;;;;;13.80;5.83;;;;;;;39.50;36.89;100733.84;6243539;23;20830;-73
2022/04/26 18:44:17;;;;;;;15.20;5.30;;;;;;;39.52;37.14;100746.31;6215325;23;20905;-72
2022/04/26 18:46:44;;;;;;;12.30;7.10;;;;;;;39.42;36.90;100742.00;6216879;23;20387;-72
2022/04/26 18:49:15;;;;;;;18.63;5.43;;;;;;;39.42;36.83;100748.22;6217203;23;20857;-72
2022/04/26 18:51:43;;;;;;;12.23;6.17;;;;;;;39.40;36.93;100747.72;6218520;23;20909;-72
2022/04/26 18:54:10;;;;;;;14.03;5.67;;;;;;;39.43;36.94;100747.09;6218404;23;20747;-72
2022/04/26 18:56:36;;;;;;;23.33;8.40;;;;;;;39.44;37.14;100751.41;6247676;22;20426;-73
2022/04/26 18:59:03;;;;;;;16.40;8.90;;;;;;;39.39;37.50;100759.72;6275762;22;20425;-72
2022/04/26 19:01:29;;;;;;;17.63;7.20;;;;;;;39.36;37.21;100760.38;6247104;22;20393;-72
2022/04/26 19:03:55;;;;;;;14.80;6.57;;;;;;;39.37;37.26;100774.72;6246860;22;20698;-72
2022/04/26 19:06:22;;;;;;;16.73;7.07;;;;;;;39.39;37.28;100784.13;6248803;22;20381;-72
2022/04/26 19:08:50;;;;;;;16.03;5.20;;;;;;;39.41;37.00;100781.09;6247952;22;20437;-72
2022/04/26 19:14:02;;;;;;;20.10;8.77;;;;;;;39.46;37.09;100797.22;6274799;22;20357;-73
2022/04/26 19:16:28;;;;;;;16.30;7.10;;;;;;;39.48;37.07;100795.03;6248749;22;20479;-72
2022/04/26 19:18:56;;;;;;;11.67;5.93;;;;;;;39.46;37.23;100799.94;6275768;22;20437;-72
2022/04/26 19:21:23;;;;;;;14.93;7.57;;;;;;;39.47;37.25;100801.53;6275737;22;20354;-74
2022/04/26 19:23:50;;;;;;;24.70;7.23;;;;;;;39.46;37.51;100805.38;6248375;22;20381;-75
2022/04/26 19:26:18;;;;;;;9.37;5.10;;;;;;;39.46;37.42;100808.09;6248113;22;20447;-73
2022/04/26 19:28:44;;;;;;;15.40;6.50;;;;;;;39.41;37.68;100809.06;6248218;22;20382;-72
2022/04/26 19:31:11;;;;;;;10.10;6.13;;;;;;;39.35;37.52;100804.91;6248183;22;20472;-72
2022/04/26 19:33:38;;;;;;;15.37;6.73;;;;;;;39.37;38.03;100812.72;6247484;22;20781;-74
2022/04/26 19:36:06;;;;;;;11.73;6.13;;;;;;;39.28;38.25;100818.13;6247421;22;20874;-71
2022/04/26 19:38:32;;;;;;;17.57;8.17;;;;;;;39.23;38.37;100835.38;6272716;22;20858;-71
2022/04/26 19:40:58;;;;;;;19.33;6.83;;;;;;;39.22;38.43;100835.66;6248144;22;20417;-71
2022/04/26 19:43:25;;;;;;;14.33;5.50;;;;;;;39.21;38.29;100842.22;6247949;22;20937;-71
2022/04/26 19:45:51;;;;;;;21.30;8.40;;;;;;;39.19;38.17;100836.31;6248191;22;20397;-71
2022/04/26 19:48:17;;;;;;;18.33;10.60;;;;;;;39.19;38.29;100837.09;6247933;22;20385;-71
2022/04/26 19:53:28;;;;;;;10.80;7.30;;;;;;;39.21;38.41;100832.16;6274131;22;20887;-71
2022/04/26 19:55:54;;;;;;;13.07;6.80;;;;;;;39.18;38.92;100832.78;6224916;22;20946;-71
2022/04/26 19:58:21;;;;;;;15.33;9.47;;;;;;;39.17;38.87;100836.63;6217709;23;20388;-71
2022/04/26 20:00:47;;;;;;;12.90;7.30;;;;;;;39.21;38.70;100843.00;6217979;23;20393;-72
2022/04/26 20:03:14;;;;;;;22.50;6.80;;;;;;;39.19;38.80;100844.44;6217843;23;20453;-71
2022/04/26 20:05:41;;;;;;;14.97;6.57;;;;;;;39.20;38.75;100841.41;6216933;23;20399;-71
2022/04/26 20:08:09;;;;;;;17.27;5.87;;;;;;;39.19;38.97;100844.44;6243093;23;20355;-71
2022/04/26 20:10:36;;;;;;;8.93;5.77;;;;;;;39.18;38.91;100849.06;6216530;23;20374;-71
2022/04/26 20:13:02;;;;;;;12.10;7.70;;;;;;;39.15;39.05;100849.66;6216469;23;20383;-72